Time;durP1;ratioP1;P1;durP2;ratioP2;P2;SDS_P1;SDS_P2;PMS_P1;PMS_P2;Temp;Humidity;BMP_temperature;BMP_pressure;BME280_temperature;BME280_humidity;BME280_pressure;Samples;Min_cycle;Max_cycle;Signal;HPM_P1;HPM_P2
2022/01/30 00:00:42;;;;;;;4.28;1.30;;;;;;;;;;5033822;28;20046;-70
2022/01/30 00:03:10;;;;;;;4.18;1.48;;;;;;;;;;5034288;28;20120;-74
2022/01/30 00:05:38;;;;;;;6.93;1.35;;;;;;;;;;5035358;28;20487;-74
2022/01/30 00:08:07;;;;;;;5.55;1.88;;;;;;;;;;5035114;28;20804;-76
2022/01/30 00:10:40;;;;;;;2.97;1.17;;;;;;;;;;5033988;28;20109;-70
2022/01/30 00:13:12;;;;;;;7.82;1.75;;;;;;;;;;5033698;28;20049;-70
2022/01/30 00:15:50;;;;;;;11.60;2.35;;;;;;;;;;5035003;28;20052;-74
2022/01/30 00:21:04;;;;;;;5.43;1.88;;;;;;;;;;5033249;28;20047;-76
2022/01/30 00:23:38;;;;;;;4.03;1.63;;;;;;;;;;5034681;28;20045;-76
2022/01/30 00:26:08;;;;;;;1.98;1.27;;;;;;;;;;5030640;28;20124;-73
2022/01/30 00:28:40;;;;;;;4.70;1.50;;;;;;;;;;5017356;28;20045;-73
2022/01/30 00:31:08;;;;;;;7.15;1.63;;;;;;;;;;5017339;28;20053;-71
2022/01/30 00:33:36;;;;;;;3.00;1.75;;;;;;;;;;5033449;28;20057;-71
2022/01/30 00:36:03;;;;;;;4.70;1.27;;;;;;;;;;5034726;28;20495;-71
2022/01/30 00:38:35;;;;;;;4.38;1.50;;;;;;;;;;5034517;28;20033;-70
2022/01/30 00:41:05;;;;;;;3.95;1.13;;;;;;;;;;5034776;28;20060;-77
2022/01/30 00:43:38;;;;;;;5.95;1.35;;;;;;;;;;5033096;28;20752;-77
2022/01/30 00:46:06;;;;;;;3.85;1.38;;;;;;;;;;5033087;28;20136;-74
2022/01/30 00:48:34;;;;;;;5.72;1.83;;;;;;;;;;5034224;28;20042;-71
2022/01/30 00:51:02;;;;;;;4.68;1.60;;;;;;;;;;5033188;28;20057;-73
2022/01/30 00:53:32;;;;;;;5.90;1.50;;;;;;;;;;5033148;28;20049;-71
2022/01/30 00:56:00;;;;;;;4.80;1.50;;;;;;;;;;5033403;28;20064;-74
2022/01/30 00:58:28;;;;;;;2.15;1.17;;;;;;;;;;5016711;28;20124;-71
2022/01/30 01:00:56;;;;;;;2.30;1.08;;;;;;;;;;5034040;28;20068;-77
2022/01/30 01:03:27;;;;;;;9.43;1.50;;;;;;;;;;5017016;28;20049;-71
2022/01/30 01:05:54;;;;;;;3.15;1.45;;;;;;;;;;5046441;28;20551;-75
2022/01/30 01:08:33;;;;;;;3.15;1.20;;;;;;;;;;5052795;28;20053;-75
2022/01/30 01:11:26;;;;;;;2.97;1.30;;;;;;;;;;5052922;28;20049;-71
2022/01/30 01:14:06;;;;;;;4.13;1.48;;;;;;;;;;5053936;28;20139;-77
2022/01/30 01:24:56;;;;;;;2.75;1.15;;;;;;;;;;5054166;28;20127;-77
2022/01/30 01:27:23;;;;;;;5.25;1.70;;;;;;;;;;5053736;28;20041;-71
2022/01/30 01:29:51;;;;;;;4.40;1.25;;;;;;;;;;5052381;28;20432;-74
2022/01/30 01:32:18;;;;;;;5.47;1.92;;;;;;;;;;5053611;28;20036;-72
2022/01/30 01:34:47;;;;;;;7.63;1.48;;;;;;;;;;5052391;28;20045;-75
2022/01/30 01:37:15;;;;;;;3.47;1.67;;;;;;;;;;5053439;28;20041;-75
2022/01/30 01:39:45;;;;;;;6.25;2.00;;;;;;;;;;5053621;28;20037;-75
2022/01/30 01:42:15;;;;;;;6.20;2.05;;;;;;;;;;5052448;28;20036;-75
2022/01/30 01:44:49;;;;;;;5.25;1.98;;;;;;;;;;5053373;28;20539;-75
2022/01/30 01:47:22;;;;;;;7.13;2.03;;;;;;;;;;5052324;28;20496;-71
2022/01/30 01:49:51;;;;;;;6.75;1.90;;;;;;;;;;5035712;28;20527;-76
2022/01/30 01:52:23;;;;;;;4.22;1.60;;;;;;;;;;5052026;28;20072;-72
2022/01/30 01:54:55;;;;;;;5.82;2.33;;;;;;;;;;5051884;28;20537;-71
2022/01/30 01:57:24;;;;;;;8.88;1.65;;;;;;;;;;5052061;28;20041;-71
2022/01/30 01:59:56;;;;;;;5.78;1.42;;;;;;;;;;5051703;28;20044;-75
2022/01/30 02:02:42;;;;;;;3.50;1.58;;;;;;;;;;5052474;28;20492;-71
2022/01/30 02:05:11;;;;;;;4.60;1.80;;;;;;;;;;5052017;28;20116;-75
2022/01/30 02:10:19;;;;;;;9.18;1.83;;;;;;;;;;5053111;28;20041;-71
2022/01/30 02:12:51;;;;;;;4.32;1.75;;;;;;;;;;5051454;28;20496;-75
2022/01/30 02:26:14;;;;;;;3.38;1.55;;;;;;;;;;5051515;28;20041;-75
2022/01/30 02:28:42;;;;;;;3.33;1.52;;;;;;;;;;5051314;28;20132;-75
2022/01/30 02:31:14;;;;;;;7.43;1.55;;;;;;;;;;5051386;28;20060;-71
2022/01/30 02:33:43;;;;;;;12.77;1.60;;;;;;;;;;5051423;28;20056;-71
2022/01/30 02:36:11;;;;;;;4.82;1.25;;;;;;;;;;5051117;28;20478;-77
2022/01/30 02:38:41;;;;;;;3.45;1.55;;;;;;;;;;5051381;28;20051;-77
2022/01/30 02:41:08;;;;;;;7.20;1.80;;;;;;;;;;5034915;28;20459;-71
2022/01/30 02:43:57;;;;;;;5.75;1.40;;;;;;;;;;5036089;28;20053;-71
2022/01/30 02:46:31;;;;;;;6.63;1.65;;;;;;;;;;5052756;28;20072;-71
2022/01/30 02:49:12;;;;;;;6.35;1.67;;;;;;;;;;5050968;28;20048;-71
2022/01/30 02:51:48;;;;;;;4.13;1.70;;;;;;;;;;5050904;28;20453;-71
2022/01/30 02:54:16;;;;;;;4.13;1.55;;;;;;;;;;5034680;28;20065;-71
2022/01/30 02:56:44;;;;;;;5.55;1.45;;;;;;;;;;5051122;28;20149;-75
2022/01/30 02:59:12;;;;;;;4.65;1.67;;;;;;;;;;5051087;28;20049;-71
2022/01/30 03:01:41;;;;;;;1.95;1.27;;;;;;;;;;5050919;28;20064;-71
2022/01/30 03:04:10;;;;;;;1.63;1.27;;;;;;;;;;5041916;28;20366;-71
2022/01/30 03:06:38;;;;;;;7.18;1.65;;;;;;;;;;5044706;28;20530;-75
2022/01/30 03:09:14;;;;;;;8.85;1.83;;;;;;;;;;5035632;28;20068;-77
2022/01/30 03:11:42;;;;;;;5.95;1.67;;;;;;;;;;5034265;28;20057;-75
2022/01/30 03:14:12;;;;;;;3.05;1.45;;;;;;;;;;5050819;28;20215;-71
2022/01/30 03:16:40;;;;;;;5.60;1.52;;;;;;;;;;5034455;28;20072;-75
2022/01/30 03:19:07;;;;;;;4.35;1.45;;;;;;;;;;5050708;28;20049;-77
2022/01/30 03:21:35;;;;;;;8.85;1.73;;;;;;;;;;5052064;28;20037;-75
2022/01/30 03:24:02;;;;;;;6.35;1.77;;;;;;;;;;5050265;28;20072;-76
2022/01/30 03:26:36;;;;;;;3.40;1.52;;;;;;;;;;5050820;28;20041;-75
2022/01/30 03:29:13;;;;;;;4.82;2.10;;;;;;;;;;5053423;28;20110;-71
2022/01/30 03:31:44;;;;;;;9.43;2.70;;;;;;;;;;5038585;28;20048;-77
2022/01/30 03:34:16;;;;;;;6.22;2.50;;;;;;;;;;5054635;28;20144;-77
2022/01/30 03:36:49;;;;;;;3.15;1.90;;;;;;;;;;5054544;28;20037;-75
2022/01/30 03:39:17;;;;;;;4.95;2.20;;;;;;;;;;5054759;28;20044;-71
2022/01/30 03:41:47;;;;;;;5.47;2.08;;;;;;;;;;5038176;28;20049;-77
2022/01/30 03:44:17;;;;;;;7.57;2.10;;;;;;;;;;5054729;28;20051;-77
2022/01/30 03:46:47;;;;;;;4.18;2.00;;;;;;;;;;5054738;28;20049;-74
2022/01/30 03:49:26;;;;;;;5.00;2.15;;;;;;;;;;5054402;28;20455;-77
2022/01/30 03:51:53;;;;;;;6.43;2.22;;;;;;;;;;5037907;28;20060;-75
2022/01/30 03:54:28;;;;;;;7.88;1.65;;;;;;;;;;5054373;28;20467;-77
2022/01/30 03:56:57;;;;;;;5.35;2.00;;;;;;;;;;5037802;28;20132;-75
2022/01/30 03:59:27;;;;;;;7.18;2.22;;;;;;;;;;5054404;28;20127;-75
2022/01/30 04:01:56;;;;;;;4.65;1.95;;;;;;;;;;5037734;28;20051;-75
2022/01/30 04:04:26;;;;;;;4.70;2.28;;;;;;;;;;5052783;28;20045;-71
2022/01/30 04:06:57;;;;;;;3.15;1.77;;;;;;;;;;5054281;28;20056;-71
2022/01/30 04:09:48;;;;;;;4.88;1.92;;;;;;;;;;5026860;28;20582;-76
2022/01/30 04:12:45;;;;;;;6.35;1.60;;;;;;;;;;5045932;28;20060;-73
2022/01/30 04:15:31;;;;;;;2.80;1.48;;;;;;;;;;5054200;28;20130;-75
2022/01/30 04:18:33;;;;;;;2.35;1.50;;;;;;;;;;5053774;28;20047;-71
2022/01/30 04:21:28;;;;;;;3.22;1.35;;;;;;;;;;5031855;28;20049;-75
2022/01/30 04:24:19;;;;;;;3.08;1.70;;;;;;;;;;5051982;28;20052;-77
2022/01/30 04:27:09;;;;;;;5.80;1.50;;;;;;;;;;5044939;28;20051;-77
2022/01/30 04:29:58;;;;;;;4.75;1.95;;;;;;;;;;5003062;28;20110;-74
2022/01/30 04:32:48;;;;;;;6.72;2.38;;;;;;;;;;5025426;28;20055;-74
2022/01/30 04:35:41;;;;;;;7.95;2.72;;;;;;;;;;5039618;28;20250;-77
2022/01/30 04:38:39;;;;;;;6.82;2.50;;;;;;;;;;5053149;28;20056;-77
2022/01/30 04:41:53;;;;;;;5.68;2.47;;;;;;;;;;5031544;28;20140;-76
2022/01/30 05:05:50;;;;;;;5.55;2.13;;;;;;;;;;5053363;28;20056;-75
2022/01/30 05:08:28;;;;;;;3.42;1.80;;;;;;;;;;5053180;28;20110;-75
2022/01/30 05:11:17;;;;;;;2.00;1.42;;;;;;;;;;5053752;28;20433;-75
2022/01/30 05:14:22;;;;;;;3.83;1.73;;;;;;;;;;4999887;28;20150;-77
2022/01/30 05:17:25;;;;;;;6.63;1.90;;;;;;;;;;5040671;28;20052;-72
2022/01/30 05:20:04;;;;;;;3.63;1.70;;;;;;;;;;5037934;28;20090;-71
2022/01/30 05:22:53;;;;;;;3.50;1.50;;;;;;;;;;5052841;28;20488;-75
2022/01/30 05:25:37;;;;;;;5.57;1.70;;;;;;;;;;5038244;28;20044;-75
2022/01/30 05:28:12;;;;;;;3.00;1.42;;;;;;;;;;5052960;28;20053;-71
2022/01/30 05:30:59;;;;;;;3.92;1.58;;;;;;;;;;5054075;28;20556;-77
2022/01/30 05:34:00;;;;;;;4.38;1.38;;;;;;;;;;5044676;28;20056;-77
2022/01/30 05:36:56;;;;;;;4.18;1.30;;;;;;;;;;5052453;28;20049;-71
2022/01/30 05:39:56;;;;;;;3.42;1.65;;;;;;;;;;5031071;28;20178;-71
2022/01/30 05:42:31;;;;;;;4.45;1.70;;;;;;;;;;5052656;28;20048;-71
2022/01/30 05:45:43;;;;;;;3.80;1.70;;;;;;;;;;5038829;28;20516;-77
2022/01/30 05:48:26;;;;;;;1.55;1.40;;;;;;;;;;5053717;28;20060;-71
2022/01/30 05:51:10;;;;;;;3.88;1.50;;;;;;;;;;5051373;28;20417;-71
2022/01/30 05:53:48;;;;;;;6.05;1.63;;;;;;;;;;5052189;28;20098;-71
2022/01/30 05:56:24;;;;;;;3.20;1.67;;;;;;;;;;5051937;28;20053;-71
2022/01/30 05:58:58;;;;;;;4.85;1.80;;;;;;;;;;5036265;28;20041;-72
2022/01/30 06:01:28;;;;;;;5.90;2.20;;;;;;;;;;5052256;28;20041;-71
2022/01/30 06:04:18;;;;;;;4.30;2.08;;;;;;;;;;5052471;28;20049;-71
2022/01/30 06:06:51;;;;;;;2.47;1.75;;;;;;;;;;5051837;28;20051;-72
2022/01/30 06:09:20;;;;;;;4.38;1.65;;;;;;;;;;5052421;28;20061;-74
2022/01/30 06:11:52;;;;;;;6.68;2.20;;;;;;;;;;5051680;28;20056;-72
2022/01/30 06:14:23;;;;;;;5.15;2.65;;;;;;;;;;5035230;28;20045;-74
2022/01/30 06:17:04;;;;;;;10.80;2.90;;;;;;;;;;5051702;28;20135;-77
2022/01/30 06:19:50;;;;;;;7.45;3.15;;;;;;;;;;5053381;28;20048;-78
2022/01/30 06:22:36;;;;;;;7.03;2.50;;;;;;;;;;5053512;28;20047;-71
2022/01/30 06:25:22;;;;;;;6.43;2.45;;;;;;;;;;5051934;28;20056;-72
2022/01/30 06:28:09;;;;;;;8.48;2.50;;;;;;;;;;5052811;28;20110;-74
2022/01/30 06:30:55;;;;;;;4.80;2.50;;;;;;;;;;5053148;28;20059;-73
2022/01/30 06:33:44;;;;;;;5.80;2.35;;;;;;;;;;5053087;28;20463;-76
2022/01/30 06:36:31;;;;;;;4.53;2.25;;;;;;;;;;5052598;28;20044;-71
2022/01/30 06:39:21;;;;;;;4.50;2.50;;;;;;;;;;5052498;28;20048;-71
2022/01/30 06:42:13;;;;;;;7.03;3.08;;;;;;;;;;5051486;28;20581;-74
2022/01/30 06:44:59;;;;;;;6.80;2.42;;;;;;;;;;5053167;28;20048;-72
2022/01/30 06:47:57;;;;;;;10.73;4.70;;;;;;;;;;5015933;28;20124;-73
2022/01/30 06:50:44;;;;;;;12.32;4.43;;;;;;;;;;5039575;28;20056;-73
2022/01/30 06:53:12;;;;;;;7.03;3.95;;;;;;;;;;5051795;28;20046;-70
2022/01/30 06:55:58;;;;;;;7.53;3.65;;;;;;;;;;5052330;28;20047;-70
2022/01/30 06:58:45;;;;;;;4.53;3.13;;;;;;;;;;5052917;28;20064;-74
2022/01/30 07:01:38;;;;;;;11.00;3.13;;;;;;;;;;5052411;28;20448;-74
2022/01/30 07:04:33;;;;;;;11.30;2.90;;;;;;;;;;5051914;28;20099;-73
2022/01/30 07:07:30;;;;;;;8.55;2.30;;;;;;;;;;5043757;28;20052;-70
2022/01/30 07:10:00;;;;;;;4.60;2.10;;;;;;;;;;5052387;28;20037;-72
2022/01/30 07:12:30;;;;;;;6.60;2.05;;;;;;;;;;5050972;28;20076;-75
2022/01/30 07:14:59;;;;;;;4.30;2.15;;;;;;;;;;5050913;28;20496;-70
2022/01/30 07:17:27;;;;;;;4.40;2.30;;;;;;;;;;5052150;28;20044;-70
2022/01/30 07:19:55;;;;;;;8.27;2.42;;;;;;;;;;5052166;28;20042;-76
2022/01/30 07:22:27;;;;;;;9.32;3.38;;;;;;;;;;5051910;28;20044;-72
2022/01/30 07:24:55;;;;;;;4.85;2.65;;;;;;;;;;5052092;28;20072;-73
2022/01/30 07:27:27;;;;;;;3.00;2.50;;;;;;;;;;5052220;28;20163;-72
2022/01/30 07:29:56;;;;;;;4.07;2.30;;;;;;;;;;5045022;28;20040;-74
2022/01/30 07:32:27;;;;;;;3.97;2.40;;;;;;;;;;5050539;28;20040;-70
2022/01/30 07:34:55;;;;;;;5.05;3.08;;;;;;;;;;5050898;28;20045;-71
2022/01/30 07:37:24;;;;;;;9.70;4.72;;;;;;;;;;5050512;28;20424;-77
2022/01/30 07:39:53;;;;;;;8.38;2.95;;;;;;;;;;5052268;28;20041;-73
2022/01/30 07:42:21;;;;;;;6.13;3.28;;;;;;;;;;5034456;28;20504;-74
2022/01/30 07:44:52;;;;;;;8.27;3.70;;;;;;;;;;5031445;28;20041;-70
2022/01/30 07:47:21;;;;;;;8.02;3.72;;;;;;;;;;5041723;28;20116;-72
2022/01/30 07:49:51;;;;;;;4.80;3.15;;;;;;;;;;5025314;28;20616;-70
2022/01/30 07:52:20;;;;;;;4.10;2.55;;;;;;;;;;5041960;28;20043;-73
2022/01/30 07:54:49;;;;;;;6.20;2.60;;;;;;;;;;5017628;28;20048;-70
2022/01/30 07:57:18;;;;;;;4.60;2.00;;;;;;;;;;5032015;28;20037;-72
2022/01/30 07:59:47;;;;;;;2.13;1.60;;;;;;;;;;5031788;28;20040;-74
2022/01/30 08:02:15;;;;;;;3.78;1.80;;;;;;;;;;5030596;28;20488;-70
2022/01/30 08:04:47;;;;;;;2.80;1.63;;;;;;;;;;5031022;28;20045;-74
2022/01/30 08:07:15;;;;;;;2.90;1.90;;;;;;;;;;5032058;28;20042;-69
2022/01/30 08:09:45;;;;;;;5.05;2.20;;;;;;;;;;5031599;28;20133;-71
2022/01/30 08:12:12;;;;;;;5.88;2.55;;;;;;;;;;5030423;28;20056;-69
2022/01/30 08:14:40;;;;;;;11.38;2.65;;;;;;;;;;5015341;28;20488;-69
2022/01/30 08:17:08;;;;;;;4.47;2.22;;;;;;;;;;5033978;28;20045;-69
2022/01/30 08:19:39;;;;;;;3.45;1.92;;;;;;;;;;5035252;28;20408;-70
2022/01/30 08:22:07;;;;;;;7.25;2.40;;;;;;;;;;5041652;28;20111;-72
2022/01/30 08:24:35;;;;;;;6.80;1.98;;;;;;;;;;5053322;28;20041;-76
2022/01/30 08:27:04;;;;;;;4.53;1.80;;;;;;;;;;5055132;28;20052;-70
2022/01/30 08:29:32;;;;;;;5.68;2.15;;;;;;;;;;5054632;28;20436;-71
2022/01/30 08:32:00;;;;;;;2.15;1.55;;;;;;;;;;5054969;28;20048;-71
2022/01/30 08:34:27;;;;;;;4.80;1.88;;;;;;;;;;5054788;28;20099;-75
2022/01/30 08:36:55;;;;;;;5.13;1.88;;;;;;;;;;5052957;28;20045;-73
2022/01/30 08:39:24;;;;;;;2.33;1.50;;;;;;;;;;5054386;28;20041;-72
2022/01/30 08:41:53;;;;;;;5.20;1.83;;;;;;;;;;5043151;28;20059;-70
2022/01/30 08:44:20;;;;;;;3.10;1.95;;;;;;;;;;5034999;28;20049;-71
2022/01/30 08:46:50;;;;;;;2.80;1.73;;;;;;;;;;5034775;28;20033;-69
2022/01/30 08:49:17;;;;;;;4.15;1.60;;;;;;;;;;5033176;28;20048;-73
2022/01/30 08:51:47;;;;;;;5.30;2.30;;;;;;;;;;5034766;28;20042;-71
2022/01/30 08:54:15;;;;;;;10.18;3.30;;;;;;;;;;5034258;28;20037;-70
2022/01/30 08:56:45;;;;;;;10.73;4.78;;;;;;;;;;5032410;28;20149;-76
2022/01/30 08:59:14;;;;;;;9.27;5.32;;;;;;;;;;5032670;28;20377;-68
2022/01/30 09:01:41;;;;;;;10.40;4.15;;;;;;;;;;5031182;28;20516;-75
2022/01/30 09:04:11;;;;;;;7.85;4.30;;;;;;;;;;5031835;28;20045;-71
2022/01/30 09:06:39;;;;;;;8.77;4.40;;;;;;;;;;5033598;28;20041;-76
2022/01/30 09:09:10;;;;;;;7.05;3.90;;;;;;;;;;5033595;28;20053;-71
2022/01/30 09:11:38;;;;;;;6.43;3.28;;;;;;;;;;5034082;28;20406;-73
2022/01/30 09:14:07;;;;;;;8.55;2.22;;;;;;;;;;5033556;28;20045;-73
2022/01/30 09:16:35;;;;;;;6.38;2.85;;;;;;;;;;5032525;28;20045;-76
2022/01/30 09:19:16;;;;;;;3.45;2.22;;;;;;;;;;5034116;28;20038;-75
2022/01/30 09:21:44;;;;;;;4.68;1.65;;;;;;;;;;5033868;28;20045;-72
2022/01/30 09:24:12;;;;;;;4.47;1.90;;;;;;;;;;5032670;28;20135;-75
2022/01/30 09:26:40;;;;;;;7.68;2.83;;;;;;;;;;5031337;28;20049;-78
2022/01/30 09:29:08;;;;;;;9.15;3.33;;;;;;;;;;5032332;28;20064;-75
2022/01/30 09:31:56;;;;;;;5.65;3.10;;;;;;;;;;5033222;28;20045;-72
2022/01/30 09:34:24;;;;;;;5.57;3.00;;;;;;;;;;5033693;28;20050;-78
2022/01/30 09:36:54;;;;;;;6.63;2.67;;;;;;;;;;5033374;28;20480;-76
2022/01/30 09:39:29;;;;;;;9.02;3.08;;;;;;;;;;5030950;28;20045;-73
2022/01/30 09:41:58;;;;;;;10.10;2.85;;;;;;;;;;5032098;28;20045;-72
2022/01/30 09:44:26;;;;;;;5.53;2.60;;;;;;;;;;5033608;28;20041;-75
2022/01/30 09:46:54;;;;;;;4.70;2.90;;;;;;;;;;5033502;28;20049;-71
2022/01/30 09:49:29;;;;;;;4.73;2.00;;;;;;;;;;5033196;28;20045;-71
2022/01/30 09:51:58;;;;;;;4.60;2.08;;;;;;;;;;5032284;28;20081;-70
2022/01/30 09:54:27;;;;;;;8.98;1.80;;;;;;;;;;5033339;28;20045;-70
2022/01/30 09:56:55;;;;;;;5.32;2.17;;;;;;;;;;5033317;28;20484;-76
2022/01/30 09:59:25;;;;;;;7.60;2.85;;;;;;;;;;5032129;28;20103;-70
2022/01/30 10:01:52;;;;;;;7.10;2.85;;;;;;;;;;5031465;28;20053;-76
2022/01/30 10:04:20;;;;;;;8.93;2.60;;;;;;;;;;5033521;28;20042;-76
2022/01/30 10:09:48;;;;;;;5.90;2.30;;;;;;;;;;4953382;28;20117;-71
2022/01/30 10:12:19;;;;;;;3.53;1.90;;;;;;;;;;4953519;29;20126;-70
2022/01/30 10:15:00;;;;;;;10.75;1.92;;;;;;;;;;4953393;29;20162;-75
2022/01/30 10:17:33;;;;;;;5.50;2.03;;;;;;;;;;4955026;29;20073;-70
2022/01/30 10:20:26;;;;;;;6.88;2.70;;;;;;;;;;4955063;29;20086;-72
2022/01/30 10:22:56;;;;;;;5.75;2.42;;;;;;;;;;4955141;29;20070;-76
2022/01/30 10:25:48;;;;;;;4.35;2.17;;;;;;;;;;4954993;29;20039;-70
2022/01/30 10:28:21;;;;;;;8.50;2.53;;;;;;;;;;4940413;28;20054;-71
2022/01/30 10:30:51;;;;;;;4.82;2.50;;;;;;;;;;4972892;28;20140;-72
2022/01/30 10:33:40;;;;;;;7.05;2.05;;;;;;;;;;4974253;28;20039;-71
2022/01/30 10:36:09;;;;;;;3.88;1.98;;;;;;;;;;4974097;28;20126;-70
2022/01/30 10:38:39;;;;;;;3.75;2.28;;;;;;;;;;4973462;28;20065;-73
2022/01/30 10:41:19;;;;;;;4.63;2.40;;;;;;;;;;4957276;28;20197;-71
2022/01/30 10:44:01;;;;;;;3.40;2.08;;;;;;;;;;4957591;28;20470;-75
2022/01/30 10:47:01;;;;;;;6.30;2.58;;;;;;;;;;4973856;28;20451;-76
2022/01/30 10:49:29;;;;;;;3.92;2.30;;;;;;;;;;4941204;28;20474;-70
2022/01/30 10:51:58;;;;;;;4.72;2.33;;;;;;;;;;4973721;28;20046;-75
2022/01/30 10:54:32;;;;;;;4.00;2.10;;;;;;;;;;4973924;28;20507;-70
2022/01/30 10:57:03;;;;;;;4.40;2.55;;;;;;;;;;4956540;28;20387;-72
2022/01/30 10:59:31;;;;;;;4.47;1.90;;;;;;;;;;4973831;28;20043;-70
2022/01/30 11:02:10;;;;;;;3.63;2.05;;;;;;;;;;4973701;28;20435;-70
2022/01/30 11:04:38;;;;;;;7.35;2.25;;;;;;;;;;4974028;28;20494;-72
2022/01/30 11:07:07;;;;;;;3.20;2.20;;;;;;;;;;4973621;28;20192;-72
2022/01/30 11:09:48;;;;;;;4.50;2.30;;;;;;;;;;4973657;28;20410;-70
2022/01/30 11:12:34;;;;;;;3.35;2.10;;;;;;;;;;4972200;28;20050;-71
2022/01/30 11:17:52;;;;;;;3.85;2.00;;;;;;;;;;4973605;28;20122;-72
2022/01/30 11:20:22;;;;;;;2.80;2.03;;;;;;;;;;4974110;28;20039;-70
2022/01/30 11:22:51;;;;;;;4.55;2.13;;;;;;;;;;4973674;28;20047;-72
2022/01/30 11:25:20;;;;;;;5.00;2.28;;;;;;;;;;4973531;28;20398;-73
2022/01/30 11:27:51;;;;;;;4.28;2.10;;;;;;;;;;4956206;28;20042;-70
2022/01/30 11:30:40;;;;;;;4.63;2.03;;;;;;;;;;4959521;28;20054;-74
2022/01/30 11:33:10;;;;;;;4.85;2.10;;;;;;;;;;4973960;28;20392;-71
2022/01/30 11:35:40;;;;;;;4.45;2.20;;;;;;;;;;4973639;28;20047;-75
2022/01/30 11:38:07;;;;;;;7.15;2.58;;;;;;;;;;4973376;28;20121;-75
2022/01/30 11:40:35;;;;;;;2.30;1.75;;;;;;;;;;4973603;28;20510;-73
2022/01/30 11:43:08;;;;;;;3.22;1.80;;;;;;;;;;4973581;28;20043;-71
2022/01/30 11:45:39;;;;;;;4.35;1.80;;;;;;;;;;4973726;28;20097;-74
2022/01/30 11:48:13;;;;;;;4.05;1.88;;;;;;;;;;4973733;28;20388;-73
2022/01/30 11:50:43;;;;;;;3.42;1.75;;;;;;;;;;4976175;28;20051;-70
2022/01/30 11:53:26;;;;;;;2.03;1.50;;;;;;;;;;4976997;28;20046;-71
2022/01/30 11:56:00;;;;;;;2.80;2.03;;;;;;;;;;4977191;28;20113;-73
2022/01/30 11:58:31;;;;;;;4.15;2.00;;;;;;;;;;4959917;28;20047;-72
2022/01/30 12:01:00;;;;;;;3.28;1.75;;;;;;;;;;4960021;28;20039;-72
2022/01/30 12:03:28;;;;;;;1.85;1.55;;;;;;;;;;4977326;28;20065;-75
2022/01/30 12:06:17;;;;;;;1.77;1.48;;;;;;;;;;4959566;28;20039;-73
2022/01/30 12:08:54;;;;;;;2.58;1.90;;;;;;;;;;4976683;28;20079;-71
2022/01/30 12:11:38;;;;;;;2.60;1.90;;;;;;;;;;4960442;28;20047;-74
2022/01/30 12:14:29;;;;;;;4.40;2.13;;;;;;;;;;4959629;28;20050;-73
2022/01/30 12:17:00;;;;;;;4.50;1.95;;;;;;;;;;4959394;28;20043;-75
2022/01/30 12:19:31;;;;;;;2.95;1.70;;;;;;;;;;4959748;28;20510;-70
2022/01/30 12:22:23;;;;;;;3.85;1.80;;;;;;;;;;4959532;28;20046;-72
2022/01/30 12:24:53;;;;;;;2.67;1.80;;;;;;;;;;4976448;28;20039;-70
2022/01/30 12:27:22;;;;;;;3.75;1.85;;;;;;;;;;4976732;28;20045;-70
2022/01/30 12:29:52;;;;;;;5.05;1.70;;;;;;;;;;4976382;28;20138;-70
2022/01/30 12:34:55;;;;;;;3.45;1.80;;;;;;;;;;4976657;28;20043;-75
2022/01/30 12:37:24;;;;;;;1.70;1.40;;;;;;;;;;4976204;28;20074;-70
2022/01/30 12:39:52;;;;;;;4.30;1.70;;;;;;;;;;4976866;28;20473;-72
2022/01/30 12:42:25;;;;;;;4.82;2.30;;;;;;;;;;4976626;28;20050;-70
2022/01/30 12:44:58;;;;;;;4.00;1.90;;;;;;;;;;4976404;28;20521;-75
2022/01/30 12:47:26;;;;;;;2.40;1.40;;;;;;;;;;4959306;28;20126;-70
2022/01/30 12:49:59;;;;;;;4.13;2.10;;;;;;;;;;4976051;28;20054;-74
2022/01/30 12:54:57;;;;;;;3.50;2.00;;;;;;;;;;4976296;28;20054;-70
2022/01/30 12:57:26;;;;;;;6.05;1.60;;;;;;;;;;4976079;28;20043;-71
2022/01/30 12:59:54;;;;;;;4.47;1.65;;;;;;;;;;4975857;28;20050;-71
2022/01/30 13:02:22;;;;;;;5.03;2.08;;;;;;;;;;4958964;28;20038;-72
2022/01/30 13:04:59;;;;;;;3.03;1.90;;;;;;;;;;4959267;28;20039;-75
2022/01/30 13:07:27;;;;;;;5.13;2.08;;;;;;;;;;4975869;28;20069;-72
2022/01/30 13:10:09;;;;;;;3.58;2.08;;;;;;;;;;4975893;28;20046;-70
2022/01/30 13:12:37;;;;;;;3.90;2.15;;;;;;;;;;4975816;28;20125;-73
2022/01/30 13:15:07;;;;;;;4.57;2.05;;;;;;;;;;4975353;28;20462;-70
2022/01/30 13:17:36;;;;;;;3.47;2.00;;;;;;;;;;4975650;28;20541;-70
2022/01/30 13:20:04;;;;;;;5.45;2.33;;;;;;;;;;4975981;28;20046;-72
2022/01/30 13:22:40;;;;;;;2.42;1.92;;;;;;;;;;4975388;28;20039;-74
2022/01/30 13:25:10;;;;;;;6.70;2.08;;;;;;;;;;4975618;28;20164;-71
2022/01/30 13:27:38;;;;;;;4.03;2.00;;;;;;;;;;4975150;28;20121;-72
2022/01/30 13:30:06;;;;;;;4.18;2.28;;;;;;;;;;4975355;28;20380;-70
2022/01/30 13:32:36;;;;;;;5.57;2.17;;;;;;;;;;4975416;28;20546;-70
2022/01/30 13:35:10;;;;;;;3.05;2.10;;;;;;;;;;4975244;28;20047;-75
2022/01/30 13:37:38;;;;;;;3.70;2.10;;;;;;;;;;4957806;28;20050;-70
2022/01/30 13:40:12;;;;;;;5.75;2.17;;;;;;;;;;4975359;28;20054;-72
2022/01/30 13:47:55;;;;;;;2.75;1.77;;;;;;;;;;4975076;28;20467;-71
2022/01/30 13:50:27;;;;;;;4.57;1.88;;;;;;;;;;4974740;28;20525;-75
2022/01/30 13:53:04;;;;;;;4.75;1.92;;;;;;;;;;4975051;28;20098;-70
2022/01/30 13:55:36;;;;;;;2.65;1.35;;;;;;;;;;4975176;28;20054;-71
2022/01/30 13:58:07;;;;;;;3.05;1.40;;;;;;;;;;4975244;28;20043;-75
2022/01/30 14:00:36;;;;;;;2.97;1.67;;;;;;;;;;4974957;28;20039;-75
2022/01/30 14:03:09;;;;;;;4.72;2.60;;;;;;;;;;4974670;28;20051;-72
2022/01/30 14:05:40;;;;;;;3.03;1.55;;;;;;;;;;4974804;28;20049;-75
2022/01/30 14:08:13;;;;;;;4.03;2.25;;;;;;;;;;4974454;28;20055;-75
2022/01/30 14:10:41;;;;;;;;;;;;;;;;;;4973794;28;20054;-72
2022/01/30 14:13:13;;;;;;;2.75;1.58;;;;;;;;;;4973915;28;19926;-71
2022/01/30 14:15:41;;;;;;;2.50;1.45;;;;;;;;;;4973418;28;20566;-71
2022/01/30 14:18:19;;;;;;;1.85;1.65;;;;;;;;;;4974632;28;20058;-71
2022/01/30 14:20:49;;;;;;;5.35;2.25;;;;;;;;;;4974576;28;20043;-70
2022/01/30 14:23:21;;;;;;;4.97;2.70;;;;;;;;;;4974955;28;20383;-75
2022/01/30 14:25:49;;;;;;;3.55;2.40;;;;;;;;;;4956895;28;20039;-76
2022/01/30 14:28:19;;;;;;;4.18;2.72;;;;;;;;;;4974199;28;20517;-71
2022/01/30 14:30:46;;;;;;;4.72;2.60;;;;;;;;;;4956926;28;20049;-71
2022/01/30 14:33:17;;;;;;;4.25;2.40;;;;;;;;;;4974140;28;20047;-72
2022/01/30 14:35:46;;;;;;;3.53;2.15;;;;;;;;;;4956787;28;20043;-71
2022/01/30 14:38:16;;;;;;;4.72;2.45;;;;;;;;;;4956670;28;20046;-72
2022/01/30 14:40:43;;;;;;;3.03;2.25;;;;;;;;;;4974245;28;20113;-70
2022/01/30 14:43:11;;;;;;;6.28;3.03;;;;;;;;;;4957014;28;20038;-72
2022/01/30 14:45:41;;;;;;;8.88;4.30;;;;;;;;;;4974063;28;20043;-71
2022/01/30 14:48:09;;;;;;;6.70;3.67;;;;;;;;;;4973641;28;20046;-73
2022/01/30 14:50:44;;;;;;;4.72;2.97;;;;;;;;;;4973974;28;20510;-72
2022/01/30 14:53:14;;;;;;;4.90;2.88;;;;;;;;;;4973851;28;20074;-70
2022/01/30 14:55:43;;;;;;;5.45;2.40;;;;;;;;;;4956612;28;20043;-70
2022/01/30 14:58:16;;;;;;;5.82;1.92;;;;;;;;;;4956615;28;20421;-72
2022/01/30 15:00:46;;;;;;;2.28;1.60;;;;;;;;;;4974002;28;20054;-73
2022/01/30 15:03:14;;;;;;;6.03;2.20;;;;;;;;;;4956911;28;20471;-70
2022/01/30 15:05:46;;;;;;;2.93;1.77;;;;;;;;;;4973748;28;20042;-71
2022/01/30 15:08:13;;;;;;;4.97;2.17;;;;;;;;;;4973788;28;20047;-73
2022/01/30 15:10:41;;;;;;;2.95;2.08;;;;;;;;;;4973716;28;20043;-72
2022/01/30 15:13:12;;;;;;;2.22;1.80;;;;;;;;;;4973644;28;20113;-73
2022/01/30 15:15:41;;;;;;;6.40;2.17;;;;;;;;;;4973849;28;20043;-71
2022/01/30 15:18:20;;;;;;;5.03;2.17;;;;;;;;;;4973920;28;20118;-73
2022/01/30 15:20:50;;;;;;;5.15;2.35;;;;;;;;;;4956159;28;20365;-76
2022/01/30 15:23:20;;;;;;;3.72;1.90;;;;;;;;;;4956399;28;20395;-71
2022/01/30 15:25:48;;;;;;;6.03;1.88;;;;;;;;;;4976724;28;20043;-75
2022/01/30 15:28:16;;;;;;;4.57;1.95;;;;;;;;;;4960235;28;20043;-75
2022/01/30 15:30:45;;;;;;;6.57;1.75;;;;;;;;;;4959811;28;20074;-75
2022/01/30 15:33:14;;;;;;;1.80;1.60;;;;;;;;;;4960294;28;20605;-70
2022/01/30 15:35:43;;;;;;;3.85;1.80;;;;;;;;;;4977047;28;20051;-70
2022/01/30 15:38:12;;;;;;;4.85;1.83;;;;;;;;;;4976766;28;20043;-70
2022/01/30 15:40:40;;;;;;;6.25;2.00;;;;;;;;;;4959829;28;20047;-72
2022/01/30 15:43:28;;;;;;;3.95;1.85;;;;;;;;;;4976952;28;20045;-74
2022/01/30 15:51:30;;;;;;;4.22;1.70;;;;;;;;;;4976943;28;20039;-74
2022/01/30 15:53:58;;;;;;;4.10;1.83;;;;;;;;;;4976999;28;20063;-70
2022/01/30 15:56:29;;;;;;;4.38;1.60;;;;;;;;;;4976985;28;20117;-70
2022/01/30 15:58:58;;;;;;;5.93;1.92;;;;;;;;;;4976302;28;20074;-74
2022/01/30 16:01:30;;;;;;;3.92;2.33;;;;;;;;;;4976884;28;20043;-72
2022/01/30 16:03:58;;;;;;;2.95;1.70;;;;;;;;;;4976938;28;20391;-73
2022/01/30 16:06:26;;;;;;;4.45;1.83;;;;;;;;;;4976874;28;20047;-73
2022/01/30 16:17:23;;;;;;;3.15;1.45;;;;;;;;;;4976686;28;20126;-75
2022/01/30 16:19:53;;;;;;;3.22;1.40;;;;;;;;;;4959738;28;20035;-75
2022/01/30 16:22:23;;;;;;;3.38;2.17;;;;;;;;;;4976422;28;20173;-73
2022/01/30 16:24:51;;;;;;;3.15;1.63;;;;;;;;;;4959778;28;20430;-71
2022/01/30 16:27:19;;;;;;;3.38;1.55;;;;;;;;;;4976116;28;20450;-71
2022/01/30 16:29:47;;;;;;;2.75;1.33;;;;;;;;;;4976242;28;20082;-75
2022/01/30 16:32:15;;;;;;;3.35;1.65;;;;;;;;;;4958671;28;20170;-71
2022/01/30 16:34:46;;;;;;;4.40;1.90;;;;;;;;;;4958241;28;20058;-70
2022/01/30 16:37:15;;;;;;;3.83;1.85;;;;;;;;;;4958771;28;20047;-71